Terminal Aerodrome Forecast
Issued by NWS

Home | Current Version | Previous Version | Text Only | Print | Product List | Glossary On
Versions: 1 2 3 4 5 6 7 8 9 10 11 12 13 14
000
FTUS41 KCLE 240520
TAFFDY
TAF
KFDY 240520Z 2406/2506 16006KT P6SM SCT120 BKN250
     FM241500 18010KT P6SM SCT050 BKN250
     FM241800 18012KT P6SM BKN050 OVC120
     FM242000 20012KT P6SM VCSH OVC050
      TEMPO 2422/2502 4SM TSRA OVC025CB
     FM250200 20008KT 5SM -SHRA BR OVC035=

USA.gov is the U.S. government's official web portal to all federal, state and local government web resources and services.